Platinum Airport Platinum US
ICAO: PAPM
IATA:
Category: Medium
Scheduled Services:

Elevation: 15 ft
TransAlt. 18000 ft.

Airport Communications:
ANCHORAGE ARTCC:127.6
AWOS THREE:118.375
CTAF:122.8
KENAI RDO:122.5

PAPM Zoom In..

If you have problems with the map follow the link
https://www.worldairports.se/pages/airport.php?
ICAO=PAPM

Runways:

(A) RW 14 length 3300 ft width 75 ft
---- / hdg 139

(B) RW 32 length 3300 ft width 75 ft
---- / hdg 319

Location; PAPM
Day. 08 / Time. 12.56 Zulu
* Altimeter: 29.29
* Temperature: 00° c. 32°f.
* Wind from: 110° Speed 05 kn.
Dewpoint: -01° c.
Visibility: 10 Statute Miles.
Clouds: Clear (automated report).

PAPM 081256Z AUTO 11005KT 10SM CLR 00/M01 A2929 RMK AO2 SLP921 T00001011 FZRANO


Wind From 110°
Speed 05 kn.

 
 
jpsmedia worldairports.se 2019   terms of use